Flight Track Log - Related Links

Times and Time Zones

All times are in EDT time to prevent confusion due to time zone crossing. See the JAS794 flight status page for this flight to view local times or setup timezone preferences in your user account.

Time Position Orientation Groundspeed Altitude Reporting Facility
EDT Latitude Longitude Course Direction KTS MPH feet Rate Location/Type
Thu 07:24:24 PM 37.6500 -122.3833 58° Northeast 174 200 2,000  Level Northern Cal TRACON
Thu 07:25:24 PM 37.6833 -122.3167 58° Northeast 284 327 5,100 3,468 Climbing Northern Cal TRACON
Thu 07:26:13 PM 37.7164 -122.2669 50° Northeast 279 321 8,300 3,655 Climbing Oakland Center
Thu 07:27:14 PM 37.7825 -122.2064 36° Northeast 294 338 11,800 3,512 Climbing Oakland Center
Thu 07:28:16 PM 37.8722 -122.1186 38° Northeast 338 389 15,500 2,927 Climbing Oakland Center
Thu 07:29:17 PM 37.9553 -122.0367 38° Northeast 369 425 17,800 2,410 Climbing Oakland Center
Thu 07:30:18 PM 38.0453 -121.9475 38° Northeast 402 463 20,400 2,683 Climbing Oakland Center
Thu 07:31:20 PM 38.1367 -121.8578 38° Northeast 416 479 23,300 2,488 Climbing Oakland Center
Thu 07:32:21 PM 38.2297 -121.7667 38° Northeast 423 487 25,500 1,951 Climbing Oakland Center
Thu 07:33:23 PM 38.3247 -121.6706 38° Northeast 437 503 27,300 1,659 Climbing Oakland Center
Thu 07:34:24 PM 38.4297 -121.5653 38° Northeast 461 531 28,900 1,426 Climbing Oakland Center
Thu 07:35:25 PM 38.5133 -121.4361 50° Northeast 488 562 30,200 1,512 Climbing Oakland Center
Thu 07:36:27 PM 38.6111 -121.2667 54° Northeast 496 571 32,000 1,707 Climbing Oakland Center
Thu 07:37:28 PM 38.6883 -121.1350 53° Northeast 499 574 33,700 1,659 Climbing Oakland Center
Thu 07:38:30 PM 38.7703 -120.9931 53° Northeast 496 571 35,400 1,561 Climbing Oakland Center
Thu 07:39:31 PM 38.8519 -120.8514 53° Northeast 493 567 36,900 1,426 Climbing Oakland Center
Thu 07:40:32 PM 38.9328 -120.7111 53° Northeast 491 565 38,300 1,463 Climbing Oakland Center
Thu 07:41:34 PM 39.0122 -120.5761 53° Northeast 479 551 39,900 1,073 Climbing Oakland Center
Thu 07:42:35 PM 39.1047 -120.4125 54° Northeast 472 543 40,500 537 Climbing Oakland Center
Thu 07:43:37 PM 39.1842 -120.2736 54° Northeast 477 549 41,000 244 Climbing Oakland Center
Thu 07:44:38 PM 39.2367 -120.1511 61° Northeast 484 557 41,000  Level Oakland Center
Thu 07:45:39 PM 39.3228 -119.9522 61° Northeast 501 577 41,000  Level Oakland Center
Thu 07:46:40 PM 39.3925 -119.7928 60° Northeast 507 583 41,000  Level Oakland Center
Thu 07:47:42 PM 39.4603 -119.6317 61° Northeast 509 586 41,000  Level Oakland Center
Thu 07:48:43 PM 39.5289 -119.4714 61° Northeast 507 583 41,000  Level Oakland Center
Thu 07:49:44 PM 39.5969 -119.3106 61° Northeast 507 583 41,000  Level Oakland Center
Thu 07:50:46 PM 39.6656 -119.1489 61° Northeast 506 582 41,000  Level Oakland Center
Thu 07:51:47 PM 39.7344 -118.9853 61° Northeast 510 587 41,000  Level Oakland Center
Thu 07:52:49 PM 39.8036 -118.8219 61° Northeast 510 587 41,000  Level Oakland Center
Thu 07:53:50 PM 39.8714 -118.6594 61° Northeast 507 583 41,000  Level Oakland Center
Thu 07:54:52 PM 39.9381 -118.4981 62° Northeast 504 580 41,000  Level Oakland Center
Thu 07:55:53 PM 40.0047 -118.3364 62° Northeast 505 581 41,000  Level Oakland Center
Thu 07:56:55 PM 40.0708 -118.1742 62° Northeast 504 580 41,000  Level Oakland Center
Thu 07:57:56 PM 40.1489 -117.9806 62° Northeast 502 578 41,000  Level Oakland Center
Thu 07:58:57 PM 40.2153 -117.8189 62° Northeast 504 580 41,000  Level Oakland Center
Thu 07:59:36 PM 40.2564 -117.7186 62° Northeast 504 580 41,000  Level Salt Lake Center
Thu 08:00:38 PM 40.3186 -117.5628 62° Northeast 504 580 41,000  Level Salt Lake Center
Thu 08:01:40 PM 40.3919 -117.3814 62° Northeast 502 578 41,000  Level Salt Lake Center
Thu 08:02:42 PM 40.4542 -117.2250 62° Northeast 502 578 41,000  Level Salt Lake Center
Thu 08:03:44 PM 40.5169 -117.0689 62° Northeast 500 575 41,000  Level Salt Lake Center
Thu 08:04:45 PM 40.5894 -116.8817 63° Northeast 504 580 41,000  Level Salt Lake Center
Thu 08:05:47 PM 40.6522 -116.7222 63° Northeast 506 582 41,000  Level Salt Lake Center
Thu 08:06:49 PM 40.7133 -116.5650 63° Northeast 502 578 41,000  Level Salt Lake Center
Thu 08:07:51 PM 40.7836 -116.3817 63° Northeast 500 575 41,000  Level Salt Lake Center
Thu 08:08:53 PM 40.8428 -116.2239 64° Northeast 501 577 41,000  Level Salt Lake Center
Thu 08:09:55 PM 40.9133 -116.0403 63° Northeast 501 577 41,000  Level Salt Lake Center
Thu 08:10:56 PM 40.9742 -115.8836 63° Northeast 501 577 41,000  Level Salt Lake Center
Thu 08:11:58 PM 41.0436 -115.6989 63° Northeast 501 577 41,000  Level Salt Lake Center
Thu 08:13:00 PM 41.1028 -115.5392 64° Northeast 503 579 41,000  Level Salt Lake Center
Thu 08:14:02 PM 41.1631 -115.3797 63° Northeast 504 580 41,000  Level Salt Lake Center
Thu 08:15:03 PM 41.2317 -115.1947 64° Northeast 502 578 41,000  Level Salt Lake Center
Thu 08:16:05 PM 41.2911 -115.0356 64° Northeast 501 577 41,000  Level Salt Lake Center
Thu 08:17:07 PM 41.3589 -114.8492 64° Northeast 500 575 41,000  Level Salt Lake Center
Thu 08:18:09 PM 41.4131 -114.6992 64° Northeast 501 577 41,000  Level Salt Lake Center
Thu 08:19:11 PM 41.4856 -114.4994 64° Northeast 499 574 41,000  Level Salt Lake Center
Thu 08:20:13 PM 41.5467 -114.3339 64° Northeast 498 573 41,000  Level Salt Lake Center
Thu 08:21:14 PM 41.6047 -114.1683 65° Northeast 493 567 41,000  Level Salt Lake Center
Thu 08:22:16 PM 41.6636 -114.0014 65° Northeast 497 572 41,000 -48 Level Salt Lake Center
Thu 08:23:18 PM 41.7222 -113.8339 65° Northeast 498 573 40,900  Descending Salt Lake Center
Thu 08:24:20 PM 41.7825 -113.6653 64° Northeast 500 575 41,000 48 Climbing Salt Lake Center
Thu 08:25:22 PM 41.8414 -113.4969 65° Northeast 498 573 41,000  Level Salt Lake Center
Thu 08:26:23 PM 41.9125 -113.2956 65° Northeast 497 572 41,000  Level Salt Lake Center
Thu 08:27:25 PM 41.9692 -113.1258 66° East 498 573 41,000  Level Salt Lake Center
Thu 08:28:27 PM 42.0275 -112.9578 65° Northeast 497 572 41,000  Level Salt Lake Center
Thu 08:29:29 PM 42.0864 -112.7869 65° Northeast 501 577 41,000  Level Salt Lake Center
Thu 08:30:31 PM 42.1439 -112.6178 65° Northeast 499 574 41,000  Level Salt Lake Center
Thu 08:31:32 PM 42.2044 -112.4506 64° Northeast 496 571 41,000  Level Salt Lake Center
Thu 08:32:34 PM 42.2956 -112.3081 49° Northeast 501 577 41,000  Level Salt Lake Center
Thu 08:33:36 PM 42.3878 -112.1678 48° Northeast 499 574 41,000  Level Salt Lake Center
Thu 08:34:38 PM 42.4950 -111.9981 49° Northeast 497 572 41,000  Level Salt Lake Center
Thu 08:35:40 PM 42.5536 -111.8272 65° Northeast 500 575 41,000  Level Salt Lake Center
Thu 08:36:41 PM 42.6100 -111.6531 66° East 503 579 41,000  Level Salt Lake Center
Thu 08:37:43 PM 42.6644 -111.4789 67° East 502 578 41,000  Level Salt Lake Center
Thu 08:38:45 PM 42.7203 -111.3083 66° East 503 579 41,000  Level Salt Lake Center
Thu 08:39:47 PM 42.7811 -111.1117 67° East 506 582 41,000  Level Salt Lake Center
Thu 08:40:48 PM 42.8325 -110.9450 67° East 502 578 41,000  Level Salt Lake Center
Thu 08:41:50 PM 42.8911 -110.7458 68° East 507 583 41,000  Level Salt Lake Center
Thu 08:42:52 PM 42.9397 -110.5594 70° East 499 574 41,000  Level Salt Lake Center
Thu 08:43:54 PM 42.9875 -110.3778 70° East 501 577 41,000  Level Salt Lake Center
Thu 08:44:55 PM 43.0336 -110.2050 70° East 505 581 41,000  Level Salt Lake Center
Thu 08:45:57 PM 43.0858 -110.0028 70° East 506 582 41,000  Level Salt Lake Center
Thu 08:46:59 PM 43.1319 -109.8264 70° East 508 585 41,000  Level Salt Lake Center
Thu 08:48:01 PM 43.1767 -109.6542 70° East 504 580 41,000  Level Salt Lake Center
Thu 08:49:03 PM 43.2281 -109.4511 71° East 504 580 41,000  Level Salt Lake Center
Thu 08:50:04 PM 43.2714 -109.2783 71° East 503 579 41,000  Level Salt Lake Center
Thu 08:51:06 PM 43.3217 -109.0769 71° East 501 577 41,000  Level Salt Lake Center
Thu 08:52:08 PM 43.3656 -108.9019 71° East 507 583 41,000 48 Level Salt Lake Center
Thu 08:53:10 PM 43.4156 -108.6989 71° East 503 579 41,100  Climbing Salt Lake Center
Thu 08:54:11 PM 43.4586 -108.5256 71° East 502 578 41,000 -49 Descending Salt Lake Center
Thu 08:55:13 PM 43.5069 -108.3222 72° East 503 579 41,000  Level Salt Lake Center
Thu 08:56:15 PM 43.5489 -108.1500 71° East 500 575 41,000  Level Salt Lake Center
Thu 08:57:16 PM 43.5900 -107.9758 72° East 499 574 41,000  Level Salt Lake Center
Thu 08:58:18 PM 43.6381 -107.7728 72° East 501 577 41,000  Level Salt Lake Center
Thu 08:59:20 PM 43.6792 -107.5981 72° East 502 578 41,000  Level Salt Lake Center
Thu 09:00:21 PM 43.7264 -107.3931 72° East 505 581 41,000  Level Salt Lake Center
Thu 09:01:23 PM 43.7644 -107.2231 73° East 493 567 41,000  Level Salt Lake Center
Thu 09:02:24 PM 43.8108 -107.0192 72° East 497 572 41,000  Level Salt Lake Center
Thu 09:03:26 PM 43.8558 -106.8361 71° East 501 577 41,000  Level Salt Lake Center
Thu 09:04:04 PM 43.8869 -106.7158 70° East 500 575 41,000  Level Denver Center
Thu 09:05:06 PM 43.9286 -106.5414 72° East 500 575 41,000  Level Denver Center
Thu 09:06:08 PM 43.9769 -106.3358 72° East 501 577 41,000  Level Denver Center
Thu 09:07:10 PM 44.0200 -106.1583 71° East 506 582 41,000  Level Denver Center
Thu 09:08:11 PM 44.0608 -105.9831 72° East 501 577 41,000  Level Denver Center
Thu 09:09:13 PM 44.1086 -105.7783 72° East 498 573 41,000  Level Denver Center
Thu 09:10:15 PM 44.1414 -105.6331 73° East 495 570 41,000  Level Denver Center
Thu 09:11:17 PM 44.1944 -105.3994 72° East 494 568 41,000  Level Denver Center
Thu 09:12:19 PM 44.2347 -105.2236 72° East 497 572 41,000  Level Denver Center
Thu 09:13:20 PM 44.2800 -105.0211 73° East 492 566 41,000 341 Level Denver Center
Thu 09:14:22 PM 44.3172 -104.8489 73° East 486 559 41,700 677 Climbing Denver Center
Thu 09:15:24 PM 44.3553 -104.6786 73° East 481 554 42,400 629 Climbing Denver Center
Thu 09:16:26 PM 44.3981 -104.4789 73° East 479 551 43,000 537 Climbing Denver Center
Thu 09:17:27 PM 44.4350 -104.3094 73° East 478 550 43,500 537 Climbing Denver Center
Thu 09:18:29 PM 44.4781 -104.1094 73° East 480 552 44,100 484 Climbing Denver Center
Thu 09:19:31 PM 44.5006 -103.9353 80° East 477 549 44,500 339 Climbing Denver Center
Thu 09:20:33 PM 44.5025 -103.7297 89° East 474 545 44,800 194 Climbing Denver Center
Thu 09:21:35 PM 44.5028 -103.5528 90° East 474 545 44,900 97 Climbing Denver Center
Thu 09:22:37 PM 44.5031 -103.3758 90° East 481 554 45,000 49 Climbing Denver Center
Thu 09:23:38 PM 44.5050 -103.1486 89° East 486 559 45,000  Level Denver Center
Thu 09:24:40 PM 44.5042 -102.9572 90° East 491 565 45,000  Level Denver Center
Thu 09:25:42 PM 44.5031 -102.7614 90° East 499 574 45,000  Level Denver Center
Thu 09:26:44 PM 44.5039 -102.5667 90° East 502 578 45,000 48 Level Denver Center
Thu 09:27:46 PM 44.5047 -102.3733 90° East 501 577 45,100  Climbing Denver Center
Thu 09:28:48 PM 44.5011 -102.1767 91° East 504 580 45,000 -48 Descending Denver Center
Thu 09:29:50 PM 44.5011 -101.9814 90° East 504 580 45,000  Level Denver Center
Thu 09:30:52 PM 44.5331 -101.7525 79° East 500 575 45,000  Level Denver Center
Thu 09:31:54 PM 44.5547 -101.5597 81° East 501 577 45,000  Level Denver Center
Thu 09:32:56 PM 44.5789 -101.3686 80° East 500 575 45,000  Level Denver Center
Thu 09:33:58 PM 44.6017 -101.1767 80° East 500 575 45,000  Level Denver Center
Thu 09:35:05 PM 44.6297 -100.9492 80° East 498 573 45,000  Level Minneapolis Center
Thu 09:36:07 PM 44.6525 -100.7578 80° East 499 574 45,000  Level Minneapolis Center
Thu 09:37:08 PM 44.6706 -100.6050 81° East 499 574 45,000  Level Minneapolis Center
Thu 09:38:10 PM 44.6961 -100.3767 81° East 497 572 45,000  Level Minneapolis Center
Thu 09:39:12 PM 44.7181 -100.1881 81° East 495 570 45,000  Level Minneapolis Center
Thu 09:40:13 PM 44.7428 -99.9628 81° East 492 566 45,000  Level Minneapolis Center
Thu 09:41:15 PM 44.7636 -99.7756 81° East 492 566 45,000  Level Minneapolis Center
Thu 09:42:16 PM 44.7850 -99.5872 81° East 493 567 45,000  Level Minneapolis Center
Thu 09:43:18 PM 44.8053 -99.3986 81° East 492 566 45,000  Level Minneapolis Center
Thu 09:44:19 PM 44.8264 -99.2081 81° East 494 568 45,000  Level Minneapolis Center
Thu 09:45:20 PM 44.8419 -99.0561 82° East 494 568 45,000  Level Minneapolis Center
Thu 09:46:22 PM 44.8653 -98.8283 82° East 491 565 45,000  Level Minneapolis Center
Thu 09:47:24 PM 44.8878 -98.5986 82° East 494 568 45,000  Level Minneapolis Center
Thu 09:48:25 PM 44.9069 -98.4067 82° East 495 570 45,000  Level Minneapolis Center
Thu 09:49:26 PM 44.9250 -98.2264 82° East 495 570 45,000  Level Minneapolis Center
Thu 09:50:28 PM 44.9419 -98.0358 83° East 492 566 45,000  Level Minneapolis Center
Thu 09:51:29 PM 44.9561 -97.8814 83° East 495 570 45,000  Level Minneapolis Center
Thu 09:52:30 PM 44.9775 -97.6514 82° East 494 568 45,000  Level Minneapolis Center
Thu 09:53:32 PM 44.9894 -97.4206 86° East 492 566 45,000  Level Minneapolis Center
Thu 09:54:33 PM 44.9997 -97.2267 86° East 495 570 45,000  Level Minneapolis Center
Thu 09:55:34 PM 45.0092 -97.0347 86° East 492 566 45,000  Level Minneapolis Center
Thu 09:56:36 PM 45.0206 -96.8428 85° East 491 565 45,000  Level Minneapolis Center
Thu 09:57:37 PM 45.0306 -96.6508 86° East 490 564 45,000  Level Minneapolis Center
Thu 09:58:50 PM 45.0389 -96.4564 86° East 494 568 45,000  Level Minneapolis Center
Thu 09:59:52 PM 45.0497 -96.2253 86° East 491 565 45,000  Level Minneapolis Center
Thu 10:00:53 PM 45.0589 -96.0294 86° East 497 572 45,000  Level Minneapolis Center
Thu 10:02:06 PM 45.0675 -95.8339 86° East 497 572 45,000  Level Minneapolis Center
Thu 10:03:08 PM 45.0778 -95.6017 86° East 493 567 45,000  Level Minneapolis Center
Thu 10:04:09 PM 45.0853 -95.4078 87° East 494 568 45,000  Level Minneapolis Center
Thu 10:05:23 PM 45.0944 -95.1753 87° East 493 567 45,000  Level Minneapolis Center
Thu 10:06:24 PM 45.1033 -94.9456 87° East 490 564 45,000  Level Minneapolis Center
Thu 10:07:25 PM 45.1089 -94.7550 88° East 487 560 45,000  Level Minneapolis Center
Thu 10:08:27 PM 45.1144 -94.5556 88° East 487 560 45,000  Level Minneapolis Center
Thu 10:09:28 PM 45.1217 -94.3656 87° East 487 560 45,000  Level Minneapolis Center
Thu 10:10:41 PM 45.1264 -94.1736 88° East 488 562 45,000  Level Minneapolis Center
Thu 10:11:43 PM 45.1328 -93.9444 88° East 487 560 45,000  Level Minneapolis Center
Thu 10:12:44 PM 45.1383 -93.7508 88° East 490 564 45,000  Level Minneapolis Center
Thu 10:13:45 PM 45.1425 -93.5572 88° East 490 564 45,000  Level Minneapolis Center
Thu 10:14:46 PM 45.1467 -93.3656 88° East 486 559 45,000  Level Minneapolis Center
Thu 10:15:48 PM 45.1417 -93.1714 92° East 489 563 45,000  Level Minneapolis Center
Thu 10:16:49 PM 45.1350 -92.9769 93° East 491 565 45,000  Level Minneapolis Center
Thu 10:17:50 PM 45.1289 -92.7831 92° East 491 565 45,000  Level Minneapolis Center
Thu 10:18:51 PM 45.1231 -92.5928 92° East 485 558 45,000  Level Minneapolis Center
Thu 10:19:53 PM 45.1150 -92.3622 93° East 489 563 45,000  Level Minneapolis Center
Thu 10:20:54 PM 45.1086 -92.1706 93° East 488 562 45,000  Level Minneapolis Center
Thu 10:21:55 PM 45.1011 -91.9786 93° East 491 565 45,000  Level Minneapolis Center
Thu 10:22:57 PM 45.0939 -91.7869 93° East 490 564 45,000  Level Minneapolis Center
Thu 10:23:58 PM 45.0853 -91.5936 94° East 491 565 45,000  Level Minneapolis Center
Thu 10:24:59 PM 45.0750 -91.4019 94° East 492 566 45,000  Level Minneapolis Center
Thu 10:26:00 PM 45.0681 -91.2106 93° East 490 564 45,000  Level Minneapolis Center
Thu 10:27:02 PM 45.0589 -91.0192 94° East 489 563 45,000  Level Minneapolis Center
Thu 10:28:03 PM 45.0508 -90.8144 93° East 488 562 45,000  Level Minneapolis Center
Thu 10:29:04 PM 45.0411 -90.6231 94° East 490 564 45,000  Level Minneapolis Center
Thu 10:30:05 PM 45.0317 -90.4319 94° East 490 564 45,000  Level Minneapolis Center
Thu 10:31:07 PM 45.0211 -90.2417 94° East 488 562 45,000  Level Minneapolis Center
Thu 10:32:08 PM 45.0108 -90.0511 94° East 490 564 45,000  Level Minneapolis Center
Thu 10:33:09 PM 44.9983 -89.8217 94° East 491 565 45,000  Level Minneapolis Center
Thu 10:34:10 PM 44.9889 -89.6342 94° East 492 566 45,000  Level Minneapolis Center
Thu 10:35:11 PM 44.9769 -89.4439 95° East 489 563 45,000  Level Minneapolis Center
Thu 10:36:13 PM 44.9650 -89.2556 95° East 483 556 45,000  Level Minneapolis Center
Thu 10:37:14 PM 44.9536 -89.0642 95° East 487 560 45,000  Level Minneapolis Center
Thu 10:38:15 PM 44.9411 -88.8761 95° East 483 556 45,000  Level Minneapolis Center
Thu 10:39:28 PM 44.9292 -88.6872 95° East 484 557 45,000  Level Minneapolis Center
Thu 10:40:30 PM 44.9117 -88.4344 95° East 486 559 45,000  Level Minneapolis Center
Thu 10:41:31 PM 44.8986 -88.2333 95° East 491 565 45,000  Level Minneapolis Center
Thu 10:42:32 PM 44.8844 -88.0447 96° East 489 563 45,000 -49 Level Minneapolis Center
Thu 10:43:33 PM 44.8700 -87.8497 96° East 496 571 44,900  Descending Minneapolis Center
Thu 10:44:35 PM 44.8556 -87.6539 96° East 503 579 45,000 49 Climbing Minneapolis Center
Thu 10:45:36 PM 44.8397 -87.4564 96° East 508 585 45,000 -49 Level Minneapolis Center
Thu 10:46:37 PM 44.8236 -87.2653 97° East 496 571 44,900 -49 Descending Minneapolis Center
Thu 10:47:38 PM 44.8092 -87.0800 96° East 481 554 44,900 49 Level Minneapolis Center
Thu 10:48:39 PM 44.7942 -86.8936 96° East 480 552 45,000 49 Climbing Minneapolis Center
Thu 10:49:41 PM 44.7769 -86.6917 97° East 485 558 45,000  Level Minneapolis Center
Thu 10:50:42 PM 44.7603 -86.5017 97° East 489 563 45,000  Level Minneapolis Center
Thu 10:51:43 PM 44.7439 -86.3103 97° East 492 566 45,000  Level Minneapolis Center
Thu 10:52:44 PM 44.7275 -86.1186 97° East 493 567 45,000  Level Minneapolis Center
Thu 10:53:45 PM 44.7136 -85.9639 97° East 496 571 45,000  Level Minneapolis Center
Thu 10:54:47 PM 44.6925 -85.7317 97° East 498 573 45,000  Level Minneapolis Center
Thu 10:55:48 PM 44.6739 -85.5350 98° East 495 570 45,000  Level Minneapolis Center
Thu 10:56:49 PM 44.6556 -85.3436 98° East 497 572 45,000  Level Minneapolis Center
Thu 10:57:51 PM 44.6336 -85.1139 98° East 497 572 45,000  Level Minneapolis Center
Thu 10:58:52 PM 44.6147 -84.9233 98° East 495 570 45,000  Level Minneapolis Center
Thu 10:59:53 PM 44.5958 -84.7333 98° East 494 568 45,000  Level Minneapolis Center
Thu 11:00:55 PM 44.5758 -84.5442 98° East 492 566 45,000  Level Minneapolis Center
Thu 11:01:56 PM 44.5553 -84.3528 99° East 495 570 45,000  Level Minneapolis Center
Thu 11:02:57 PM 44.5358 -84.1631 98° East 494 568 45,000  Level Minneapolis Center
Thu 11:03:58 PM 44.5156 -83.9733 98° East 495 570 45,000  Level Minneapolis Center
Thu 11:05:00 PM 44.4950 -83.7831 99° East 495 570 45,000  Level Minneapolis Center
Thu 11:06:01 PM 44.4739 -83.5928 99° East 495 570 45,000  Level Minneapolis Center
Thu 11:07:02 PM 44.4461 -83.3653 100° East 496 571 45,000  Level Minneapolis Center
Thu 11:08:04 PM 44.4000 -83.1831 109° East 496 571 45,000  Level Minneapolis Center
Thu 11:08:33 PM 44.3500 -83.0833 125° Southeast 500 575 45,000  Level Toronto Center
Thu 11:09:33 PM 44.3000 -82.9167 113° Southeast 500 575 45,000  Level Toronto Center
Thu 11:10:33 PM 44.2333 -82.7333 117° Southeast 500 575 45,000  Level Toronto Center
Thu 11:11:33 PM 44.2000 -82.5333 103° East 500 575 45,000  Level Toronto Center
Thu 11:12:09 PM 44.1803 -82.4747 115° Southeast 497 572 45,000  Level Minneapolis Center
Thu 11:12:33 PM 44.1333 -82.3667 121° Southeast 500 575 45,000  Level Toronto Center
Thu 11:13:33 PM 44.0833 -82.2167 115° Southeast 500 575 45,000  Level Toronto Center
Thu 11:14:33 PM 44.0167 -82.0167 115° Southeast 500 575 45,000  Level Toronto Center
Thu 11:15:33 PM 43.9833 -81.8500 105° East 500 575 45,000  Level Toronto Center
Thu 11:16:32 PM 43.9167 -81.6667 117° Southeast 500 575 45,000  Level Toronto Center
Thu 11:17:33 PM 43.8833 -81.4833 104° East 500 575 45,000  Level Toronto Center
Thu 11:18:32 PM 43.8500 -81.2667 102° East 500 575 45,000  Level Toronto Center
Thu 11:19:33 PM 43.8333 -81.0833 97° East 500 575 45,000  Level Toronto Center
Thu 11:20:32 PM 43.8000 -80.9000 104° East 510 587 45,000  Level Toronto Center
Thu 11:21:33 PM 43.8000 -80.7167 90° East 510 587 45,000  Level Toronto Center
Thu 11:22:33 PM 43.7667 -80.5333 104° East 510 587 45,000  Level Toronto Center
Thu 11:23:33 PM 43.7500 -80.3333 97° East 510 587 45,000  Level Toronto Center
Thu 11:24:33 PM 43.7167 -80.1333 103° East 510 587 45,000  Level Toronto Center
Thu 11:25:33 PM 43.7000 -79.9333 97° East 510 587 45,000  Level Toronto Center
Thu 11:26:33 PM 43.6667 -79.7500 104° East 510 587 45,000  Level Toronto Center
Thu 11:27:33 PM 43.6500 -79.5667 97° East 510 587 45,000  Level Toronto Center
Thu 11:28:33 PM 43.6167 -79.3500 102° East 510 587 45,000  Level Toronto Center
Thu 11:29:33 PM 43.6000 -79.1667 97° East 500 575 45,000  Level Toronto Center
Thu 11:30:33 PM 43.5833 -78.9833 97° East 510 587 45,000  Level Toronto Center
Thu 11:31:33 PM 43.5500 -78.7833 103° East 510 587 45,000  Level Toronto Center
Thu 11:32:33 PM 43.5167 -78.6000 104° East 510 587 45,000  Level Toronto Center
Thu 11:33:32 PM 43.5056 -78.4539 96° East 502 578 45,000  Level Cleveland Center
Thu 11:34:32 PM 43.4789 -78.2631 101° East 502 578 45,000  Level Cleveland Center
Thu 11:35:32 PM 43.4500 -78.0697 102° East 507 583 45,000  Level Cleveland Center
Thu 11:36:33 PM 43.4250 -77.8819 100° East 507 583 45,000  Level Cleveland Center
Thu 11:37:32 PM 43.3975 -77.6919 101° East 507 583 45,000  Level Cleveland Center
Thu 11:39:33 PM 43.3167 -77.2667 105° East 510 587 45,000  Level Toronto Center
Thu 11:40:33 PM 43.2833 -77.0667 103° East 510 587 45,000  Level Toronto Center
Thu 11:41:33 PM 43.2667 -76.8833 97° East 500 575 45,000  Level Toronto Center
Thu 11:42:33 PM 43.2500 -76.7000 97° East 500 575 45,000  Level Toronto Center
Thu 11:43:33 PM 43.2000 -76.5167 110° East 500 575 45,000  Level Toronto Center
Thu 11:44:33 PM 43.1833 -76.3167 96° East 500 575 45,000  Level Toronto Center
Thu 11:45:33 PM 43.1500 -76.1333 104° East 510 587 45,000  Level Toronto Center
Thu 11:46:33 PM 43.1167 -75.9500 104° East 500 575 45,000  Level Toronto Center
Thu 11:47:33 PM 43.0833 -75.7833 105° East 510 587 45,000  Level Toronto Center
Thu 11:48:33 PM 43.0500 -75.6000 104° East 500 575 45,000  Level Toronto Center
Thu 11:49:33 PM 43.0167 -75.3833 102° East 500 575 45,000  Level Toronto Center
Thu 11:50:33 PM 43.0167 -75.2167 90° East 510 587 45,000  Level Toronto Center
Thu 11:51:33 PM 42.9833 -75.0000 102° East 510 587 45,000  Level Toronto Center
Thu 11:52:33 PM 42.9667 -74.8333 98° East 510 587 45,000  Level Toronto Center
Thu 11:53:33 PM 42.9333 -74.6167 102° East 500 575 45,000  Level Toronto Center
Thu 11:54:33 PM 42.9167 -74.4500 98° East 500 575 45,000  Level Toronto Center
Thu 11:54:56 PM 42.9139 -74.4672 258° West 509 586 45,000 -145 Level Boston Center
Thu 11:55:56 PM 42.8883 -74.2422 99° East 504 580 44,800 -900 Descending Boston Center
Thu 11:56:56 PM 42.8600 -74.0575 102° East 504 580 43,200 -2,050 Descending Boston Center
Thu 11:57:56 PM 42.8353 -73.8669 100° East 504 580 40,700 -2,450 Descending Boston Center
Thu 11:58:56 PM 42.8106 -73.6797 100° East 509 586 38,300 -2,500 Descending Boston Center
Thu 11:59:56 PM 42.7833 -73.4839 101° East 509 586 35,700 -2,600 Descending Boston Center
Fri 12:00:56 AM 42.7558 -73.2828 100° East 520 598 33,100 -2,650 Descending Boston Center
Fri 12:01:56 AM 42.7300 -73.0789 100° East 532 612 30,400 -2,750 Descending Boston Center
Fri 12:02:56 AM 42.6956 -72.8525 102° East 548 631 27,600 -2,550 Descending Boston Center
Fri 12:03:56 AM 42.6669 -72.6717 102° East 524 603 25,300 -2,400 Descending Boston Center
Fri 12:04:56 AM 42.6422 -72.4994 101° East 485 558 22,800 -2,350 Descending Boston Center
Fri 12:05:56 AM 42.6192 -72.3272 100° East 466 536 20,600 -2,150 Descending Boston Center
Fri 12:06:56 AM 42.5897 -72.1750 105° East 461 531 18,500 -2,150 Descending Boston Center
Fri 12:07:56 AM 42.5622 -72.0003 102° East 447 514 16,300 -1,700 Descending Boston Center
Fri 12:08:56 AM 42.5428 -71.8597 101° East 428 493 15,100 -1,350 Descending Boston Center
Fri 12:09:56 AM 42.5167 -71.6964 102° East 414 476 13,600 -1,311 Descending Boston Center
Fri 12:10:55 AM 42.5000 -71.5667 100° East 359 413 12,500 -1,250 Descending KA90
Fri 12:11:56 AM 42.4833 -71.4333 100° East 330 380 11,100 -1,450 Descending KA90
Fri 12:12:55 AM 42.4833 -71.3167 90° East 326 375 9,600 -1,513 Descending KA90
Fri 12:13:55 AM 42.4667 -71.2000 101° East 320 368 8,100 -1,488 Descending KA90
Fri 12:14:56 AM 42.4500 -71.0833 101° East 314 361 6,600 -1,438 Descending KA90
Fri 12:15:56 AM 42.4333 -70.9667 101° East 294 338 5,200 -1,475 Descending KA90
Fri 12:16:54 AM 42.4167 -70.8667 103° East 277 319 3,700 -1,059 Descending KA90
Fri 12:17:55 AM 42.3833 -70.7833 118° Southeast 245 282 3,100 -689 Descending KA90
Fri 12:18:56 AM 42.3367 -70.8167 208° Southwest 147 169 2,300 -550 Descending Boston Center
Fri 12:19:55 AM 42.3333 -70.8833 266° West 204 235 2,000 -726 Descending KA90
Fri 12:21:00 AM 42.3333 -70.9500 270° West 157 181 800 14,254 Descending KA90
Fri 12:22:56 AM 42.3294 -71.0556 267° West 150 173 45,000 22,862 Climbing Boston Center
Fri 12:24:00 AM 42.3500 -71.0000 North  Level FlightAware Approximate

Login

Don't have an account? Register now (free) for customized features, flight alerts, and more!